Time;durP1;ratioP1;P1;durP2;ratioP2;P2;SDS_P1;SDS_P2;PMS_P1;PMS_P2;Temp;Humidity;BMP_temperature;BMP_pressure;BME280_temperature;BME280_humidity;BME280_pressure;Samples;Min_cycle;Max_cycle;Signal;HPM_P1;HPM_P2
2022/05/24 00:00:18;;;;;;;2.60;1.80;;;19.60;99.90;;;;;;5085371;28;20656;-88
2022/05/24 00:02:44;;;;;;;2.40;1.80;;;19.70;99.90;;;;;;5086788;28;20624;-88
2022/05/24 00:05:11;;;;;;;2.60;1.37;;;19.70;99.90;;;;;;5083744;28;20646;-88
2022/05/24 00:07:40;;;;;;;1.33;1.20;;;19.70;99.90;;;;;;5084257;28;20635;-88
2022/05/24 00:10:09;;;;;;;1.80;1.60;;;19.80;99.90;;;;;;5087221;28;20664;-88
2022/05/24 00:12:38;;;;;;;2.97;1.30;;;19.70;99.90;;;;;;5080153;28;20644;-88
2022/05/24 00:15:23;;;;;;;0.90;0.90;;;19.80;99.90;;;;;;5087057;28;20608;-88
2022/05/24 00:17:54;;;;;;;3.07;1.13;;;19.70;99.90;;;;;;5084487;28;21286;-88
2022/05/24 00:20:23;;;;;;;1.10;0.87;;;19.60;99.90;;;;;;5093477;28;20664;-88
2022/05/24 00:22:50;;;;;;;1.20;1.10;;;19.60;99.90;;;;;;5090423;28;20608;-88
2022/05/24 00:25:17;;;;;;;1.67;1.00;;;19.60;99.90;;;;;;5091083;28;20640;-88
2022/05/24 00:27:46;;;;;;;1.63;1.27;;;19.50;99.90;;;;;;5085588;28;20624;-87
2022/05/24 00:30:14;;;;;;;0.80;0.70;;;19.50;99.90;;;;;;5078598;28;20664;-88
2022/05/24 00:32:42;;;;;;;0.93;0.93;;;19.50;99.90;;;;;;5084416;28;20635;-88
2022/05/24 00:35:09;;;;;;;1.30;1.20;;;19.50;99.90;;;;;;5082430;28;20632;-88
2022/05/24 00:37:39;;;;;;;1.33;1.30;;;19.50;99.90;;;;;;5084574;28;20663;-87
2022/05/24 00:40:09;;;;;;;1.20;1.10;;;19.40;99.90;;;;;;5079636;28;21084;-88
2022/05/24 00:42:38;;;;;;;1.43;0.80;;;19.40;99.90;;;;;;5080004;28;20632;-88
2022/05/24 00:45:12;;;;;;;1.30;1.20;;;19.40;99.90;;;;;;5085165;28;20628;-88
2022/05/24 00:47:43;;;;;;;1.27;0.80;;;19.30;99.90;;;;;;5077333;28;20612;-88
2022/05/24 00:50:13;;;;;;;1.07;0.90;;;19.20;99.90;;;;;;5080126;28;20655;-87
2022/05/24 00:52:46;;;;;;;0.90;0.90;;;19.20;99.90;;;;;;5081545;28;20624;-88
2022/05/24 00:55:15;;;;;;;1.33;0.97;;;19.20;99.90;;;;;;5079809;28;21651;-88
2022/05/24 00:57:50;;;;;;;0.90;0.90;;;19.20;99.90;;;;;;5082768;28;20700;-87
2022/05/24 01:00:21;;;;;;;1.30;1.20;;;19.20;99.90;;;;;;5081309;28;21018;-88
2022/05/24 01:02:49;;;;;;;0.90;0.90;;;19.10;99.90;;;;;;5070830;28;21202;-88
2022/05/24 01:05:18;;;;;;;0.80;0.80;;;19.10;99.90;;;;;;5085558;28;20609;-87
2022/05/24 01:07:45;;;;;;;1.10;1.00;;;19.10;99.90;;;;;;5079823;28;20645;-88
2022/05/24 01:10:16;;;;;;;1.73;0.90;;;19.10;99.90;;;;;;5083490;28;20663;-87
2022/05/24 01:12:48;;;;;;;1.77;1.00;;;19.10;99.90;;;;;;5081983;28;20647;-88
2022/05/24 01:15:18;;;;;;;0.80;0.80;;;19.10;99.90;;;;;;5079293;28;20632;-87
2022/05/24 01:17:46;;;;;;;2.73;0.90;;;19.10;99.90;;;;;;5088844;28;20675;-88
2022/05/24 01:20:14;;;;;;;0.90;0.90;;;19.00;99.90;;;;;;5087463;28;20671;-88
2022/05/24 01:23:08;;;;;;;1.70;0.83;;;18.90;99.90;;;;;;5088908;28;21227;-88
2022/05/24 01:25:42;;;;;;;0.73;0.73;;;18.90;99.90;;;;;;5088076;28;20619;-88
2022/05/24 01:28:23;;;;;;;0.70;0.70;;;18.90;99.90;;;;;;5086444;28;20623;-88
2022/05/24 01:30:50;;;;;;;1.13;0.90;;;18.80;99.90;;;;;;5083950;28;20647;-88
2022/05/24 01:36:11;;;;;;;1.17;0.70;;;18.80;99.90;;;;;;5086516;28;20706;-88
2022/05/24 01:38:41;;;;;;;2.63;0.90;;;18.80;99.90;;;;;;5086088;28;20676;-88
2022/05/24 01:41:12;;;;;;;1.40;0.73;;;18.80;99.90;;;;;;5092215;28;20651;-88
2022/05/24 01:43:42;;;;;;;1.07;0.97;;;18.80;99.90;;;;;;5093694;28;20631;-87
2022/05/24 01:46:13;;;;;;;3.80;0.90;;;18.70;99.90;;;;;;5089077;28;21034;-87
2022/05/24 01:48:46;;;;;;;1.07;0.70;;;18.70;99.90;;;;;;5088651;28;20654;-88
2022/05/24 01:51:16;;;;;;;1.37;1.00;;;18.70;99.90;;;;;;5091445;28;20664;-87
2022/05/24 01:53:47;;;;;;;1.57;1.00;;;18.70;99.90;;;;;;5084745;28;20632;-87
2022/05/24 01:56:17;;;;;;;1.80;0.90;;;18.60;99.90;;;;;;5089847;28;20631;-88
2022/05/24 01:58:49;;;;;;;0.70;0.70;;;18.60;99.90;;;;;;5079110;28;20672;-88
2022/05/24 02:01:24;;;;;;;1.50;0.63;;;18.70;99.90;;;;;;5079681;28;20653;-88
2022/05/24 02:03:51;;;;;;;0.70;0.70;;;18.70;99.90;;;;;;5088534;28;20652;-87
2022/05/24 02:06:21;;;;;;;1.27;0.60;;;18.70;99.90;;;;;;5082183;28;20982;-87
2022/05/24 02:08:48;;;;;;;0.57;0.57;;;18.70;99.90;;;;;;5085977;28;20625;-88
2022/05/24 02:11:17;;;;;;;1.00;0.83;;;18.70;99.90;;;;;;5087223;28;20671;-88
2022/05/24 02:13:47;;;;;;;1.20;0.87;;;18.60;99.90;;;;;;5081765;28;20953;-88
2022/05/24 02:16:17;;;;;;;1.03;0.60;;;18.60;99.90;;;;;;5087083;28;20628;-88
2022/05/24 02:18:47;;;;;;;0.60;0.60;;;18.60;99.90;;;;;;5086139;28;21071;-88
2022/05/24 02:21:14;;;;;;;1.37;0.70;;;18.60;99.90;;;;;;5088547;28;21532;-88
2022/05/24 02:23:44;;;;;;;0.77;0.77;;;18.50;99.90;;;;;;5088266;28;20635;-88
2022/05/24 02:26:12;;;;;;;0.80;0.70;;;18.50;99.90;;;;;;5088016;28;21178;-87
2022/05/24 02:28:40;;;;;;;0.70;0.70;;;18.50;99.90;;;;;;5086873;28;20628;-88
2022/05/24 02:31:12;;;;;;;1.33;0.80;;;18.50;99.90;;;;;;5086547;28;20747;-88
2022/05/24 02:33:39;;;;;;;0.90;0.80;;;18.60;99.90;;;;;;5087908;28;20627;-87
2022/05/24 02:36:07;;;;;;;1.00;0.73;;;18.60;99.90;;;;;;5087062;28;21027;-88
2022/05/24 02:38:33;;;;;;;1.17;0.60;;;18.50;99.90;;;;;;5085339;28;20656;-87
2022/05/24 02:43:46;;;;;;;0.80;0.70;;;18.50;99.90;;;;;;5085518;28;21378;-87
2022/05/24 02:46:16;;;;;;;1.23;0.80;;;18.40;99.90;;;;;;5084487;28;20723;-88
2022/05/24 02:48:43;;;;;;;0.70;0.70;;;18.40;99.90;;;;;;5083274;28;20621;-88
2022/05/24 02:51:11;;;;;;;0.70;0.70;;;18.40;99.90;;;;;;5087999;28;21104;-88
2022/05/24 02:53:38;;;;;;;0.83;0.80;;;18.40;99.90;;;;;;5087741;28;20635;-88
2022/05/24 02:56:06;;;;;;;1.87;1.20;;;18.30;99.90;;;;;;5078853;28;20636;-88
2022/05/24 02:58:33;;;;;;;1.13;1.10;;;18.20;99.90;;;;;;5085853;28;20672;-88
2022/05/24 03:01:00;;;;;;;1.20;1.10;;;18.20;99.90;;;;;;5083609;28;20656;-88
2022/05/24 03:03:28;;;;;;;0.80;0.80;;;18.30;99.90;;;;;;5099318;28;20639;-88
2022/05/24 03:05:55;;;;;;;1.33;0.83;;;18.10;99.90;;;;;;5101324;28;20600;-87
2022/05/24 03:11:09;;;;;;;0.63;0.60;;;18.10;99.90;;;;;;5085315;28;20664;-88
2022/05/24 03:16:20;;;;;;;2.10;0.80;;;18.10;99.90;;;;;;5087354;28;20678;-88
2022/05/24 03:18:48;;;;;;;1.10;0.80;;;18.10;99.90;;;;;;5086755;28;20715;-87
2022/05/24 03:21:15;;;;;;;1.53;0.90;;;18.00;99.90;;;;;;5083431;28;21633;-89
2022/05/24 03:23:42;;;;;;;4.13;1.10;;;18.10;99.90;;;;;;5084586;28;21216;-88
2022/05/24 03:26:11;;;;;;;0.93;0.90;;;18.10;99.90;;;;;;5086021;28;20701;-88
2022/05/24 03:28:38;;;;;;;1.37;0.80;;;18.00;99.90;;;;;;5087041;28;20699;-88
2022/05/24 03:31:07;;;;;;;2.90;0.87;;;18.10;99.90;;;;;;5086488;28;20709;-87
2022/05/24 03:33:34;;;;;;;2.10;0.80;;;18.10;99.90;;;;;;5086501;28;20834;-88
2022/05/24 03:36:03;;;;;;;2.90;1.43;;;18.00;99.90;;;;;;5086671;28;20644;-88
2022/05/24 03:38:30;;;;;;;1.30;1.20;;;18.00;99.90;;;;;;5080826;28;21057;-87
2022/05/24 03:40:57;;;;;;;1.00;0.80;;;18.00;99.90;;;;;;5080866;28;20655;-87
2022/05/24 03:43:24;;;;;;;3.97;1.20;;;18.10;99.90;;;;;;5074294;28;20663;-87
2022/05/24 03:45:59;;;;;;;1.00;1.00;;;18.10;99.90;;;;;;5082615;28;21067;-88
2022/05/24 03:48:26;;;;;;;1.20;1.20;;;18.10;99.90;;;;;;5078431;28;20707;-88
2022/05/24 03:50:54;;;;;;;2.63;2.40;;;18.10;99.90;;;;;;5080376;28;20659;-88
2022/05/24 03:53:22;;;;;;;1.30;1.07;;;18.10;99.90;;;;;;5087042;28;21237;-88
2022/05/24 03:55:49;;;;;;;1.80;1.17;;;18.10;99.90;;;;;;5080140;28;20628;-88
2022/05/24 03:58:16;;;;;;;1.90;1.43;;;18.10;99.90;;;;;;5084921;28;21036;-88
2022/05/24 04:00:44;;;;;;;1.23;1.17;;;18.10;99.90;;;;;;5081240;28;20653;-88
2022/05/24 04:03:11;;;;;;;1.20;1.10;;;18.10;99.90;;;;;;5087383;28;20640;-88
2022/05/24 04:05:38;;;;;;;1.33;1.03;;;18.10;99.90;;;;;;5083588;28;20616;-87
2022/05/24 04:08:05;;;;;;;1.77;0.97;;;18.10;99.90;;;;;;5080156;28;20613;-88
2022/05/24 04:10:34;;;;;;;0.80;0.80;;;18.10;99.90;;;;;;5083799;28;20656;-88
2022/05/24 04:13:01;;;;;;;1.43;0.83;;;18.10;99.90;;;;;;5089206;28;20628;-88
2022/05/24 04:15:28;;;;;;;1.13;0.87;;;18.10;99.90;;;;;;5086050;28;20635;-88
2022/05/24 04:17:55;;;;;;;0.80;0.80;;;18.10;99.90;;;;;;5086205;28;20657;-87
2022/05/24 04:20:26;;;;;;;1.57;0.67;;;18.20;99.90;;;;;;5079107;28;20660;-88
2022/05/24 04:22:54;;;;;;;2.00;1.00;;;18.10;99.90;;;;;;5081998;28;20669;-88
2022/05/24 04:25:21;;;;;;;0.77;0.53;;;18.20;99.90;;;;;;5083214;28;20620;-88
2022/05/24 04:27:50;;;;;;;2.97;1.37;;;18.20;99.90;;;;;;5084102;28;20634;-88
2022/05/24 04:30:17;;;;;;;1.10;1.10;;;18.10;99.90;;;;;;5082410;28;20702;-88
2022/05/24 04:32:44;;;;;;;2.07;1.00;;;18.10;99.90;;;;;;5084235;28;21683;-89
2022/05/24 04:35:11;;;;;;;2.70;1.00;;;18.20;99.90;;;;;;5084258;28;20616;-87
2022/05/24 04:37:38;;;;;;;1.23;1.10;;;18.10;99.90;;;;;;5084137;28;20631;-88
2022/05/24 04:40:07;;;;;;;1.00;0.97;;;18.20;99.90;;;;;;5083261;28;20653;-88
2022/05/24 04:42:33;;;;;;;1.67;1.03;;;18.20;99.90;;;;;;5080794;28;21169;-88
2022/05/24 04:45:06;;;;;;;1.00;0.90;;;18.30;99.90;;;;;;5078365;28;20625;-89
2022/05/24 04:47:33;;;;;;;2.00;0.90;;;18.30;99.90;;;;;;5084090;28;20202;-88
2022/05/24 04:50:04;;;;;;;1.00;0.90;;;18.20;99.90;;;;;;5076301;28;20647;-88
2022/05/24 04:52:33;;;;;;;0.97;0.97;;;18.20;99.90;;;;;;5085168;28;20636;-88
2022/05/24 04:55:00;;;;;;;5.57;1.20;;;18.30;99.90;;;;;;5082916;28;21146;-87
2022/05/24 04:57:27;;;;;;;3.50;1.20;;;18.20;99.90;;;;;;5081031;28;20620;-88
2022/05/24 04:59:54;;;;;;;2.60;1.50;;;18.20;99.90;;;;;;5084590;28;20663;-88
2022/05/24 05:02:23;;;;;;;2.03;1.50;;;18.20;99.90;;;;;;5036350;28;1164824;-88
2022/05/24 05:04:50;;;;;;;1.30;1.20;;;18.20;99.90;;;;;;5085990;28;21518;-88
2022/05/24 05:07:19;;;;;;;0.90;0.90;;;18.20;99.90;;;;;;5084646;28;20631;-88
2022/05/24 05:09:46;;;;;;;1.30;1.20;;;18.30;99.90;;;;;;5083612;28;20652;-88
2022/05/24 05:12:14;;;;;;;2.60;1.40;;;18.30;99.90;;;;;;5083960;28;20631;-88
2022/05/24 05:14:41;;;;;;;1.30;1.23;;;18.30;99.90;;;;;;5081391;28;20635;-88
2022/05/24 05:17:08;;;;;;;2.03;1.63;;;18.20;99.90;;;;;;5085174;28;20628;-88
2022/05/24 05:19:37;;;;;;;2.40;1.30;;;18.20;99.90;;;;;;5081153;28;21110;-88
2022/05/24 05:22:05;;;;;;;6.80;1.73;;;18.30;99.90;;;;;;5081522;28;21206;-88
2022/05/24 05:24:33;;;;;;;1.50;1.40;;;18.30;99.90;;;;;;5079130;28;20630;-87
2022/05/24 05:27:00;;;;;;;1.33;1.23;;;18.30;99.90;;;;;;5077614;28;20722;-88
2022/05/24 05:32:21;;;;;;;1.20;1.03;;;18.30;99.90;;;;;;5048192;28;20685;-88
2022/05/24 05:34:50;;;;;;;3.33;1.30;;;18.40;99.90;;;;;;5083840;28;21117;-88
2022/05/24 05:37:17;;;;;;;3.63;1.50;;;18.40;99.90;;;;;;5084609;28;20628;-88
2022/05/24 05:39:44;;;;;;;1.60;1.50;;;18.50;99.90;;;;;;5083812;28;20687;-88
2022/05/24 05:42:11;;;;;;;1.67;1.57;;;18.50;99.90;;;;;;5082745;28;20617;-86
2022/05/24 05:44:37;;;;;;;2.30;1.67;;;18.50;99.90;;;;;;5086091;28;20635;-87
2022/05/24 05:47:05;;;;;;;1.50;1.40;;;18.60;99.90;;;;;;5086455;28;20671;-87
2022/05/24 05:49:32;;;;;;;3.37;1.33;;;18.60;99.90;;;;;;5077808;28;20633;-87
2022/05/24 05:52:00;;;;;;;1.13;1.03;;;18.70;99.90;;;;;;5086531;28;20628;-89
2022/05/24 05:54:27;;;;;;;5.00;1.40;;;18.70;99.90;;;;;;5092089;28;20995;-88
2022/05/24 05:56:55;;;;;;;4.57;0.97;;;18.90;99.90;;;;;;5090677;28;20628;-88
2022/05/24 05:59:22;;;;;;;0.80;0.80;;;18.90;99.90;;;;;;5095841;28;20671;-87
2022/05/24 06:01:48;;;;;;;2.37;0.70;;;18.90;99.90;;;;;;5091025;28;21301;-88
2022/05/24 06:04:15;;;;;;;4.80;1.30;;;18.90;99.90;;;;;;5084628;28;20637;-87
2022/05/24 06:06:45;;;;;;;1.33;0.90;;;19.00;99.90;;;;;;5085521;28;20646;-88
2022/05/24 06:09:14;;;;;;;2.87;1.00;;;19.10;99.90;;;;;;5088971;28;20632;-88
2022/05/24 06:11:41;;;;;;;1.23;1.13;;;19.20;99.90;;;;;;5089969;28;20651;-88
2022/05/24 06:14:08;;;;;;;1.80;0.90;;;19.20;99.90;;;;;;5098436;28;20643;-88
2022/05/24 06:16:35;;;;;;;1.70;0.90;;;19.30;99.90;;;;;;5090227;28;20695;-89
2022/05/24 06:19:02;;;;;;;1.37;0.63;;;19.30;99.90;;;;;;5089260;28;21140;-89
2022/05/24 06:21:33;;;;;;;3.10;1.17;;;19.30;99.90;;;;;;5091524;28;20648;-88
2022/05/24 06:24:00;;;;;;;2.30;0.90;;;19.40;99.90;;;;;;5087927;28;20631;-88
2022/05/24 06:26:28;;;;;;;1.23;1.00;;;19.40;99.90;;;;;;5096220;28;20615;-88
2022/05/24 06:28:55;;;;;;;1.50;1.30;;;19.50;99.90;;;;;;5093641;28;20627;-88
2022/05/24 06:31:22;;;;;;;2.53;1.00;;;19.60;99.90;;;;;;5092425;28;21682;-89
2022/05/24 06:33:48;;;;;;;1.37;0.70;;;19.60;99.90;;;;;;5088964;28;20985;-88
2022/05/24 06:36:15;;;;;;;2.10;0.90;;;19.70;99.90;;;;;;5090573;28;20630;-88
2022/05/24 06:38:42;;;;;;;2.33;1.07;;;19.80;99.90;;;;;;5086962;28;21041;-89
2022/05/24 06:41:09;;;;;;;1.83;0.87;;;19.70;99.90;;;;;;5087287;28;20652;-89
2022/05/24 06:43:38;;;;;;;3.20;1.00;;;19.70;99.90;;;;;;5086004;28;20624;-89
2022/05/24 06:46:07;;;;;;;2.23;1.10;;;19.70;99.90;;;;;;5088026;28;20609;-88
2022/05/24 06:48:35;;;;;;;2.50;0.80;;;19.60;99.90;;;;;;5085016;28;20630;-88
2022/05/24 06:51:07;;;;;;;2.07;1.33;;;19.60;99.90;;;;;;5094272;28;20650;-88
2022/05/24 06:53:34;;;;;;;2.00;1.03;;;19.70;99.90;;;;;;5085558;28;20999;-88
2022/05/24 06:56:01;;;;;;;1.23;1.13;;;19.70;99.90;;;;;;5077954;28;20643;-88
2022/05/24 06:58:27;;;;;;;3.07;1.27;;;19.60;99.90;;;;;;5083596;28;20683;-88
2022/05/24 07:03:40;;;;;;;1.40;0.90;;;19.70;99.90;;;;;;5097909;28;20623;-89
2022/05/24 07:06:07;;;;;;;2.03;1.50;;;19.70;99.90;;;;;;5085714;28;20639;-89
2022/05/24 07:08:33;;;;;;;1.57;1.00;;;19.70;99.90;;;;;;5083243;28;20628;-89
2022/05/24 07:11:00;;;;;;;2.17;1.07;;;19.60;99.90;;;;;;5089131;28;20651;-89
2022/05/24 07:13:27;;;;;;;3.90;1.07;;;19.60;99.90;;;;;;5091056;28;20647;-88
2022/05/24 07:15:56;;;;;;;1.90;1.10;;;19.60;99.90;;;;;;5089883;28;20663;-89
2022/05/24 07:18:25;;;;;;;1.63;0.97;;;19.40;99.90;;;;;;5085611;28;20627;-88
2022/05/24 07:20:51;;;;;;;1.67;0.97;;;19.40;99.90;;;;;;5081264;28;20679;-89
2022/05/24 07:23:20;;;;;;;1.10;0.50;;;19.40;99.90;;;;;;5088067;28;20616;-88
2022/05/24 07:25:48;;;;;;;1.30;0.60;;;18.30;99.90;;;;;;5088674;28;21178;-88
2022/05/24 07:28:17;;;;;;;5.10;0.60;;;17.90;99.90;;;;;;5085087;28;21511;-89
2022/05/24 07:30:44;;;;;;;1.53;0.53;;;17.60;99.90;;;;;;5085141;28;20652;-88
2022/05/24 07:33:13;;;;;;;2.23;0.60;;;17.30;99.90;;;;;;5088697;28;20632;-90
2022/05/24 07:35:40;;;;;;;0.90;0.67;;;16.80;99.90;;;;;;5087162;28;20646;-90
2022/05/24 07:38:07;;;;;;;3.00;0.87;;;16.80;99.90;;;;;;5082433;28;20705;-89
2022/05/24 07:46:08;;;;;;;0.67;0.60;;;17.00;99.90;;;;;;5087258;28;20564;-91
2022/05/24 07:48:37;;;;;;;1.67;0.53;;;16.90;99.90;;;;;;5088016;28;20642;-90
2022/05/24 07:51:05;;;;;;;1.33;0.50;;;16.80;99.90;;;;;;5085673;28;21013;-90
2022/05/24 07:53:32;;;;;;;1.10;0.80;;;16.70;99.90;;;;;;5086098;28;20591;-90
2022/05/24 07:55:59;;;;;;;0.70;0.53;;;16.60;99.90;;;;;;5088251;28;20651;-89
2022/05/24 07:58:27;;;;;;;0.90;0.60;;;16.70;99.90;;;;;;5081664;28;20624;-88
2022/05/24 08:00:56;;;;;;;1.10;0.73;;;16.90;99.90;;;;;;5083640;28;21332;-89
2022/05/24 08:03:23;;;;;;;1.20;0.90;;;17.00;99.90;;;;;;5086438;28;21476;-89
2022/05/24 08:05:51;;;;;;;2.93;0.83;;;17.00;99.90;;;;;;5078223;28;20616;-88
2022/05/24 08:08:18;;;;;;;2.37;0.73;;;17.00;99.90;;;;;;5085587;28;21203;-88
2022/05/24 08:10:45;;;;;;;1.10;0.90;;;17.10;99.90;;;;;;5085182;28;20651;-88
2022/05/24 08:13:14;;;;;;;3.50;0.60;;;17.20;99.90;;;;;;5093006;28;20643;-89
2022/05/24 08:15:41;;;;;;;1.57;0.73;;;17.30;99.90;;;;;;5090526;28;20679;-89
2022/05/24 08:18:09;;;;;;;2.23;0.90;;;17.50;99.90;;;;;;5094366;28;20630;-88
2022/05/24 08:20:37;;;;;;;1.63;0.60;;;17.70;99.90;;;;;;5093077;28;20683;-89
2022/05/24 08:23:05;;;;;;;0.90;0.50;;;17.90;99.90;;;;;;5086849;28;20654;-88
2022/05/24 08:25:33;;;;;;;1.17;0.73;;;17.70;99.90;;;;;;5084185;28;20639;-88
2022/05/24 08:28:02;;;;;;;0.67;0.50;;;17.80;99.90;;;;;;5085943;28;20636;-88
2022/05/24 08:30:30;;;;;;;0.57;0.47;;;17.80;99.90;;;;;;5085671;28;21283;-87
2022/05/24 08:32:57;;;;;;;1.73;0.57;;;17.90;99.90;;;;;;5087736;28;20651;-87
2022/05/24 08:35:25;;;;;;;1.80;0.60;;;18.10;99.90;;;;;;5075559;28;20631;-88
2022/05/24 08:37:52;;;;;;;1.33;0.50;;;18.10;99.90;;;;;;5085811;28;20638;-88
2022/05/24 08:40:22;;;;;;;1.73;0.60;;;18.10;99.90;;;;;;5087188;28;20691;-88
2022/05/24 08:43:31;;;;;;;2.40;0.70;;;18.10;99.90;;;;;;5085229;28;21350;-88
2022/05/24 08:48:51;;;;;;;6.57;0.70;;;18.40;99.90;;;;;;5083777;28;20592;-88
2022/05/24 08:51:23;;;;;;;0.53;0.50;;;18.50;99.90;;;;;;5081776;28;20640;-87
2022/05/24 08:53:53;;;;;;;1.10;0.50;;;18.40;99.90;;;;;;5079403;28;20620;-88
2022/05/24 08:56:25;;;;;;;0.47;0.47;;;18.70;99.90;;;;;;5083796;28;20628;-88
2022/05/24 08:58:57;;;;;;;0.70;0.50;;;18.70;99.90;;;;;;5084905;28;20580;-87
2022/05/24 09:01:32;;;;;;;1.13;0.50;;;18.60;99.90;;;;;;5079550;28;20667;-87
2022/05/24 09:03:59;;;;;;;1.70;0.60;;;18.60;99.90;;;;;;5077580;28;21185;-87
2022/05/24 09:06:35;;;;;;;0.60;0.40;;;18.50;99.90;;;;;;5080761;28;21181;-87
2022/05/24 09:09:17;;;;;;;0.40;0.30;;;18.70;99.90;;;;;;5085051;28;20631;-87
2022/05/24 09:12:00;;;;;;;1.23;0.70;;;18.60;99.90;;;;;;5084041;28;20896;-87
2022/05/24 09:14:37;;;;;;;0.73;0.60;;;18.60;99.90;;;;;;5084172;28;21201;-86
2022/05/24 09:17:14;;;;;;;0.63;0.40;;;18.80;99.90;;;;;;5083285;28;20600;-87
2022/05/24 09:19:43;;;;;;;2.63;0.80;;;18.70;99.90;;;;;;5084316;28;20680;-86
2022/05/24 09:22:11;;;;;;;3.00;0.60;;;18.70;99.90;;;;;;5084326;28;20715;-87
2022/05/24 09:24:44;;;;;;;1.60;0.60;;;18.90;99.90;;;;;;5083221;28;20690;-87
2022/05/24 09:27:16;;;;;;;0.63;0.50;;;19.10;99.90;;;;;;5087593;28;20632;-87
2022/05/24 09:29:57;;;;;;;0.67;0.50;;;19.30;99.90;;;;;;5084258;28;20648;-87
2022/05/24 09:32:31;;;;;;;3.63;0.63;;;19.30;99.90;;;;;;5080777;28;20635;-87
2022/05/24 09:35:12;;;;;;;0.73;0.60;;;19.30;99.90;;;;;;5084446;28;20627;-86
2022/05/24 09:37:41;;;;;;;2.30;0.50;;;19.00;99.90;;;;;;5085179;28;21587;-87
2022/05/24 09:40:17;;;;;;;1.33;0.60;;;19.20;99.90;;;;;;5087850;28;21047;-87
2022/05/24 09:42:45;;;;;;;0.60;0.50;;;19.20;99.90;;;;;;5087734;28;20615;-87
2022/05/24 09:45:16;;;;;;;1.37;0.60;;;19.20;99.90;;;;;;5087939;28;20654;-87
2022/05/24 09:47:53;;;;;;;0.70;0.50;;;19.00;99.90;;;;;;5086525;28;20604;-87
2022/05/24 09:50:31;;;;;;;1.67;0.60;;;19.10;99.90;;;;;;5083198;28;21300;-87
2022/05/24 09:53:14;;;;;;;3.03;0.63;;;19.30;99.10;;;;;;5082626;28;20636;-88
2022/05/24 09:55:46;;;;;;;1.03;0.70;;;19.10;99.30;;;;;;5086464;28;20631;-88
2022/05/24 09:58:33;;;;;;;1.13;0.47;;;19.20;98.90;;;;;;5087126;28;20619;-88
2022/05/24 10:01:03;;;;;;;0.40;0.30;;;19.20;98.40;;;;;;5084124;28;20679;-89
2022/05/24 10:03:33;;;;;;;1.43;0.50;;;19.30;99.00;;;;;;5084769;28;20627;-89
2022/05/24 10:06:21;;;;;;;1.70;0.50;;;19.40;97.80;;;;;;5083059;28;20635;-89
2022/05/24 10:08:51;;;;;;;0.93;0.50;;;19.60;97.70;;;;;;5086562;28;20634;-89
2022/05/24 10:11:31;;;;;;;0.90;0.57;;;19.80;97.70;;;;;;5085325;28;20656;-89
2022/05/24 10:14:11;;;;;;;0.83;0.50;;;19.90;98.20;;;;;;5078219;28;20741;-89
2022/05/24 10:16:44;;;;;;;3.80;0.40;;;20.00;97.00;;;;;;5085199;28;20631;-89
2022/05/24 10:19:37;;;;;;;1.90;0.40;;;19.80;96.10;;;;;;5083714;28;20625;-89
2022/05/24 10:22:11;;;;;;;0.60;0.40;;;19.80;97.20;;;;;;5087299;28;20616;-88
2022/05/24 10:24:50;;;;;;;1.57;0.47;;;19.80;96.50;;;;;;5087351;28;20626;-89
2022/05/24 10:27:28;;;;;;;0.93;0.50;;;19.70;96.60;;;;;;5104117;28;20638;-88
2022/05/24 10:30:04;;;;;;;1.43;0.60;;;19.60;96.30;;;;;;5100461;28;21010;-89
2022/05/24 10:38:56;;;;;;;0.53;0.40;;;19.60;94.10;;;;;;5085115;28;20933;-88
2022/05/24 10:41:27;;;;;;;1.30;0.40;;;19.70;93.40;;;;;;5088608;28;20683;-89
2022/05/24 10:44:01;;;;;;;0.73;0.60;;;19.90;92.50;;;;;;5080522;28;20604;-89
2022/05/24 10:46:39;;;;;;;3.60;0.60;;;19.90;92.50;;;;;;5085627;28;20641;-90
2022/05/24 10:49:18;;;;;;;0.60;0.50;;;20.20;92.70;;;;;;5085693;28;20705;-89
2022/05/24 10:51:53;;;;;;;0.63;0.50;;;20.40;92.70;;;;;;5089225;28;20665;-89
2022/05/24 10:54:30;;;;;;;1.30;0.43;;;20.70;91.60;;;;;;5085191;28;20636;-89
2022/05/24 10:57:02;;;;;;;0.73;0.73;;;20.90;91.60;;;;;;5079540;28;20628;-89
2022/05/24 10:59:44;;;;;;;2.23;0.50;;;20.90;91.90;;;;;;5077917;28;20693;-89
2022/05/24 11:02:20;;;;;;;3.10;0.60;;;21.10;91.70;;;;;;5087909;28;20628;-89
2022/05/24 11:04:53;;;;;;;0.60;0.40;;;21.30;90.70;;;;;;5082327;28;21348;-89
2022/05/24 11:07:21;;;;;;;0.80;0.60;;;21.50;90.00;;;;;;5079787;28;21210;-89
2022/05/24 11:09:59;;;;;;;0.80;0.60;;;21.50;90.40;;;;;;5088629;28;20663;-89
2022/05/24 11:12:30;;;;;;;0.70;0.40;;;21.50;90.40;;;;;;5085991;28;20628;-89
2022/05/24 11:15:02;;;;;;;0.93;0.60;;;21.70;89.20;;;;;;5087359;28;20700;-89
2022/05/24 11:17:30;;;;;;;0.50;0.50;;;21.60;88.60;;;;;;5086431;28;20682;-89
2022/05/24 11:19:59;;;;;;;1.33;0.50;;;21.50;89.50;;;;;;5080982;28;20672;-89
2022/05/24 11:22:30;;;;;;;1.43;0.53;;;21.50;87.70;;;;;;5093150;28;20655;-89
2022/05/24 11:25:06;;;;;;;1.90;0.50;;;21.40;86.80;;;;;;5094399;28;20662;-89
2022/05/24 11:27:35;;;;;;;0.90;0.40;;;21.40;88.40;;;;;;5088997;28;20628;-89
2022/05/24 11:30:11;;;;;;;1.87;0.80;;;21.70;89.30;;;;;;5079476;28;20663;-89
2022/05/24 11:32:43;;;;;;;0.40;0.40;;;22.20;89.70;;;;;;5088250;28;20672;-89
2022/05/24 11:35:23;;;;;;;1.03;0.40;;;22.50;86.40;;;;;;5089516;28;20656;-90
2022/05/24 11:37:52;;;;;;;0.90;0.60;;;22.90;83.70;;;;;;5088072;28;21174;-90
2022/05/24 11:40:38;;;;;;;0.50;0.30;;;22.90;80.50;;;;;;5089222;28;21035;-89
2022/05/24 11:43:06;;;;;;;2.43;0.47;;;22.60;81.40;;;;;;5084304;28;20631;-90
2022/05/24 11:45:58;;;;;;;1.43;0.60;;;22.60;82.30;;;;;;5093861;28;20620;-90
2022/05/24 11:48:45;;;;;;;1.20;0.87;;;22.50;82.90;;;;;;5087187;28;20612;-90
2022/05/24 11:51:32;;;;;;;0.63;0.60;;;22.60;82.50;;;;;;5083807;28;20652;-90
2022/05/24 11:54:01;;;;;;;0.97;0.50;;;22.90;86.30;;;;;;5087862;28;20627;-90
2022/05/24 11:56:29;;;;;;;0.63;0.50;;;23.50;86.90;;;;;;5087333;28;20619;-90
2022/05/24 11:58:59;;;;;;;1.90;0.93;;;23.70;83.00;;;;;;5089080;28;20620;-89
2022/05/24 12:01:43;;;;;;;0.63;0.50;;;23.80;82.90;;;;;;5086207;28;20675;-90
2022/05/24 12:10:44;;;;;;;1.23;1.13;;;23.80;81.00;;;;;;5085142;28;20747;-90
2022/05/24 12:13:31;;;;;;;1.60;0.60;;;23.90;82.90;;;;;;5088765;28;20686;-89
2022/05/24 12:16:00;;;;;;;3.13;0.70;;;24.40;85.90;;;;;;5087529;28;20755;-90
2022/05/24 12:18:53;;;;;;;1.57;0.70;;;24.80;83.10;;;;;;5089901;28;20624;-90
2022/05/24 12:21:42;;;;;;;1.77;0.80;;;25.20;82.20;;;;;;5089502;28;20682;-90
2022/05/24 12:24:48;;;;;;;1.50;0.50;;;25.70;78.30;;;;;;5093828;28;20620;-90
2022/05/24 12:27:23;;;;;;;0.60;0.50;;;25.10;77.40;;;;;;5048987;28;21046;-90
2022/05/24 12:29:53;;;;;;;1.13;0.50;;;25.00;80.30;;;;;;5076224;28;21103;-89
2022/05/24 12:32:22;;;;;;;1.23;0.60;;;24.60;78.00;;;;;;5092244;28;20685;-90
2022/05/24 12:34:50;;;;;;;1.87;0.70;;;24.70;80.40;;;;;;5090040;28;20635;-91
2022/05/24 12:37:25;;;;;;;1.63;0.60;;;24.80;82.70;;;;;;5083310;28;20633;-90
2022/05/24 12:40:07;;;;;;;0.60;0.60;;;24.90;78.20;;;;;;5081434;28;20655;-90
2022/05/24 12:42:34;;;;;;;1.00;0.43;;;24.90;77.00;;;;;;5084873;28;20623;-90
2022/05/24 12:45:02;;;;;;;1.13;0.40;;;24.60;74.60;;;;;;5090961;28;20622;-90
2022/05/24 12:47:31;;;;;;;2.13;0.70;;;24.50;75.70;;;;;;5083966;28;20987;-90
2022/05/24 12:49:59;;;;;;;1.97;0.70;;;24.50;75.90;;;;;;5081709;28;20694;-89
2022/05/24 12:52:30;;;;;;;1.33;0.80;;;24.80;74.80;;;;;;5083548;28;20639;-90
2022/05/24 12:54:58;;;;;;;0.80;0.50;;;25.00;73.80;;;;;;5075521;28;21206;-90
2022/05/24 12:57:30;;;;;;;0.83;0.40;;;25.50;79.70;;;;;;5086676;28;21248;-91
2022/05/24 13:00:00;;;;;;;0.60;0.57;;;25.80;75.60;;;;;;5090641;28;20652;-90
2022/05/24 13:02:31;;;;;;;1.50;0.60;;;26.30;71.90;;;;;;5091145;28;21186;-90
2022/05/24 13:05:04;;;;;;;3.10;0.57;;;26.60;75.90;;;;;;5061820;28;20648;-91
2022/05/24 13:07:39;;;;;;;0.97;0.87;;;26.50;68.60;;;;;;5080161;28;20635;-90
2022/05/24 13:10:20;;;;;;;0.70;0.40;;;26.70;71.50;;;;;;5082417;28;20679;-90
2022/05/24 13:12:48;;;;;;;0.93;0.50;;;26.90;71.40;;;;;;5089296;28;20619;-91
2022/05/24 13:15:18;;;;;;;1.37;0.50;;;27.00;66.50;;;;;;5092512;28;20611;-90
2022/05/24 13:17:48;;;;;;;1.00;0.60;;;27.10;69.60;;;;;;5092127;28;20688;-90
2022/05/24 13:20:29;;;;;;;0.90;0.60;;;27.40;69.50;;;;;;5095604;28;20667;-90
2022/05/24 13:23:01;;;;;;;1.97;0.80;;;27.70;65.90;;;;;;5089533;28;20605;-90
2022/05/24 13:25:30;;;;;;;0.60;0.60;;;27.40;63.50;;;;;;5088039;28;20979;-91
2022/05/24 13:28:00;;;;;;;1.53;0.80;;;27.30;63.30;;;;;;5087469;28;20736;-91
2022/05/24 13:33:35;;;;;;;1.23;0.73;;;26.10;61.20;;;;;;5088484;28;20608;-91
2022/05/24 13:36:18;;;;;;;0.93;0.50;;;25.90;63.50;;;;;;5095133;28;20628;-90
2022/05/24 13:38:49;;;;;;;1.40;0.80;;;25.50;64.80;;;;;;5100052;28;20624;-90
2022/05/24 13:41:29;;;;;;;1.00;0.57;;;24.70;68.00;;;;;;5103332;28;20686;-90
2022/05/24 13:44:25;;;;;;;1.20;0.63;;;24.50;71.70;;;;;;5105327;28;20700;-91
2022/05/24 13:46:57;;;;;;;1.50;0.70;;;24.40;71.40;;;;;;5103912;28;20616;-90